sensor_id;sensor_type;location;lat;lon;timestamp;P1;durP1;ratioP1;P2;durP2;ratioP2
61383;SDS011;63511;49.346;8.798;2023-03-01T00:00:08;24.42;;;11.07;;
61383;SDS011;63511;49.346;8.798;2023-03-01T00:02:35;25.75;;;11.02;;
61383;SDS011;63511;49.346;8.798;2023-03-01T00:05:02;21.98;;;10.60;;
61383;SDS011;63511;49.346;8.798;2023-03-01T00:07:30;24.60;;;11.77;;
61383;SDS011;63511;49.346;8.798;2023-03-01T00:09:57;19.08;;;10.80;;
61383;SDS011;63511;49.346;8.798;2023-03-01T00:12:23;22.98;;;11.45;;
61383;SDS011;63511;49.346;8.798;2023-03-01T00:14:50;23.15;;;11.27;;
61383;SDS011;63511;49.346;8.798;2023-03-01T00:17:17;22.48;;;10.90;;
61383;SDS011;63511;49.346;8.798;2023-03-01T00:19:43;28.83;;;11.25;;
61383;SDS011;63511;49.346;8.798;2023-03-01T00:22:10;19.88;;;11.77;;
61383;SDS011;63511;49.346;8.798;2023-03-01T00:24:38;22.23;;;11.52;;
61383;SDS011;63511;49.346;8.798;2023-03-01T00:27:04;23.10;;;11.63;;
61383;SDS011;63511;49.346;8.798;2023-03-01T00:29:31;24.77;;;11.10;;
61383;SDS011;63511;49.346;8.798;2023-03-01T00:31:57;22.27;;;12.05;;
61383;SDS011;63511;49.346;8.798;2023-03-01T00:34:24;19.85;;;11.70;;
61383;SDS011;63511;49.346;8.798;2023-03-01T00:36:50;21.40;;;10.82;;
61383;SDS011;63511;49.346;8.798;2023-03-01T00:39:17;26.90;;;12.90;;
61383;SDS011;63511;49.346;8.798;2023-03-01T00:41:45;24.80;;;12.13;;
61383;SDS011;63511;49.346;8.798;2023-03-01T00:44:12;27.63;;;12.45;;
61383;SDS011;63511;49.346;8.798;2023-03-01T00:46:38;25.90;;;13.30;;
61383;SDS011;63511;49.346;8.798;2023-03-01T00:49:05;20.30;;;11.27;;
61383;SDS011;63511;49.346;8.798;2023-03-01T00:51:32;23.88;;;12.60;;
61383;SDS011;63511;49.346;8.798;2023-03-01T00:54:00;20.90;;;12.18;;
61383;SDS011;63511;49.346;8.798;2023-03-01T00:56:28;21.13;;;11.43;;
61383;SDS011;63511;49.346;8.798;2023-03-01T00:58:56;28.80;;;12.65;;
61383;SDS011;63511;49.346;8.798;2023-03-01T01:01:23;23.38;;;11.90;;
61383;SDS011;63511;49.346;8.798;2023-03-01T01:03:52;28.63;;;12.32;;
61383;SDS011;63511;49.346;8.798;2023-03-01T01:06:21;26.67;;;11.57;;
61383;SDS011;63511;49.346;8.798;2023-03-01T01:08:49;24.23;;;11.38;;
61383;SDS011;63511;49.346;8.798;2023-03-01T01:11:16;21.98;;;12.40;;
61383;SDS011;63511;49.346;8.798;2023-03-01T01:13:43;23.15;;;12.18;;
61383;SDS011;63511;49.346;8.798;2023-03-01T01:16:12;24.67;;;12.68;;
61383;SDS011;63511;49.346;8.798;2023-03-01T01:18:43;23.98;;;12.65;;
61383;SDS011;63511;49.346;8.798;2023-03-01T01:21:11;22.83;;;12.52;;
61383;SDS011;63511;49.346;8.798;2023-03-01T01:23:39;21.63;;;11.50;;
61383;SDS011;63511;49.346;8.798;2023-03-01T01:26:07;22.70;;;12.13;;
61383;SDS011;63511;49.346;8.798;2023-03-01T01:28:34;24.98;;;13.27;;
61383;SDS011;63511;49.346;8.798;2023-03-01T01:31:02;21.85;;;12.63;;
61383;SDS011;63511;49.346;8.798;2023-03-01T01:33:31;28.30;;;13.02;;
61383;SDS011;63511;49.346;8.798;2023-03-01T01:35:58;24.30;;;12.95;;
61383;SDS011;63511;49.346;8.798;2023-03-01T01:38:24;26.58;;;14.13;;
61383;SDS011;63511;49.346;8.798;2023-03-01T01:40:51;26.10;;;12.45;;
61383;SDS011;63511;49.346;8.798;2023-03-01T01:43:19;23.48;;;13.90;;
61383;SDS011;63511;49.346;8.798;2023-03-01T01:45:48;30.30;;;15.43;;
61383;SDS011;63511;49.346;8.798;2023-03-01T01:48:16;25.08;;;13.95;;
61383;SDS011;63511;49.346;8.798;2023-03-01T01:50:50;29.38;;;13.70;;
61383;SDS011;63511;49.346;8.798;2023-03-01T01:53:21;25.45;;;13.68;;
61383;SDS011;63511;49.346;8.798;2023-03-01T01:55:49;31.02;;;15.82;;
61383;SDS011;63511;49.346;8.798;2023-03-01T01:58:22;26.70;;;13.90;;
61383;SDS011;63511;49.346;8.798;2023-03-01T02:00:50;26.92;;;14.75;;
61383;SDS011;63511;49.346;8.798;2023-03-01T02:03:17;25.45;;;13.43;;
61383;SDS011;63511;49.346;8.798;2023-03-01T02:05:47;27.33;;;14.15;;
61383;SDS011;63511;49.346;8.798;2023-03-01T02:08:22;30.25;;;13.50;;
61383;SDS011;63511;49.346;8.798;2023-03-01T02:10:51;27.40;;;13.30;;
61383;SDS011;63511;49.346;8.798;2023-03-01T02:13:19;25.58;;;13.68;;
61383;SDS011;63511;49.346;8.798;2023-03-01T02:15:45;33.97;;;14.43;;
61383;SDS011;63511;49.346;8.798;2023-03-01T02:18:12;26.88;;;13.48;;
61383;SDS011;63511;49.346;8.798;2023-03-01T02:20:44;30.08;;;13.90;;
61383;SDS011;63511;49.346;8.798;2023-03-01T02:23:22;25.90;;;13.70;;
61383;SDS011;63511;49.346;8.798;2023-03-01T02:25:52;28.90;;;13.98;;
61383;SDS011;63511;49.346;8.798;2023-03-01T02:28:32;29.80;;;15.73;;
61383;SDS011;63511;49.346;8.798;2023-03-01T02:31:00;25.60;;;13.43;;
61383;SDS011;63511;49.346;8.798;2023-03-01T02:33:46;29.50;;;14.00;;
61383;SDS011;63511;49.346;8.798;2023-03-01T02:36:15;24.92;;;13.45;;
61383;SDS011;63511;49.346;8.798;2023-03-01T02:38:45;27.40;;;14.25;;
61383;SDS011;63511;49.346;8.798;2023-03-01T02:41:13;32.20;;;15.50;;
61383;SDS011;63511;49.346;8.798;2023-03-01T02:43:43;29.02;;;15.13;;
61383;SDS011;63511;49.346;8.798;2023-03-01T02:46:13;29.77;;;13.65;;
61383;SDS011;63511;49.346;8.798;2023-03-01T02:48:42;26.98;;;13.68;;
61383;SDS011;63511;49.346;8.798;2023-03-01T02:51:16;27.63;;;14.13;;
61383;SDS011;63511;49.346;8.798;2023-03-01T02:54:04;30.90;;;14.95;;
61383;SDS011;63511;49.346;8.798;2023-03-01T02:56:38;25.75;;;14.23;;
61383;SDS011;63511;49.346;8.798;2023-03-01T02:59:06;30.27;;;15.35;;
61383;SDS011;63511;49.346;8.798;2023-03-01T03:01:34;29.67;;;14.67;;
61383;SDS011;63511;49.346;8.798;2023-03-01T03:04:03;26.73;;;13.55;;
61383;SDS011;63511;49.346;8.798;2023-03-01T03:06:31;30.08;;;14.20;;
61383;SDS011;63511;49.346;8.798;2023-03-01T03:08:57;30.15;;;14.23;;
61383;SDS011;63511;49.346;8.798;2023-03-01T03:11:24;30.02;;;14.43;;
61383;SDS011;63511;49.346;8.798;2023-03-01T03:13:51;27.60;;;13.75;;
61383;SDS011;63511;49.346;8.798;2023-03-01T03:16:19;44.90;;;15.75;;
61383;SDS011;63511;49.346;8.798;2023-03-01T03:18:46;26.15;;;14.05;;
61383;SDS011;63511;49.346;8.798;2023-03-01T03:21:13;32.33;;;14.25;;
61383;SDS011;63511;49.346;8.798;2023-03-01T03:23:41;31.42;;;15.15;;
61383;SDS011;63511;49.346;8.798;2023-03-01T03:26:07;30.08;;;15.30;;
61383;SDS011;63511;49.346;8.798;2023-03-01T03:28:38;33.08;;;15.27;;
61383;SDS011;63511;49.346;8.798;2023-03-01T03:31:05;34.35;;;14.75;;
61383;SDS011;63511;49.346;8.798;2023-03-01T03:33:34;30.60;;;14.65;;
61383;SDS011;63511;49.346;8.798;2023-03-01T03:36:01;31.40;;;15.77;;
61383;SDS011;63511;49.346;8.798;2023-03-01T03:38:28;31.60;;;15.35;;
61383;SDS011;63511;49.346;8.798;2023-03-01T03:40:59;30.45;;;15.65;;
61383;SDS011;63511;49.346;8.798;2023-03-01T03:43:27;29.83;;;15.90;;
61383;SDS011;63511;49.346;8.798;2023-03-01T03:45:55;28.85;;;15.48;;
61383;SDS011;63511;49.346;8.798;2023-03-01T03:48:23;32.90;;;15.88;;
61383;SDS011;63511;49.346;8.798;2023-03-01T03:50:52;31.58;;;16.13;;
61383;SDS011;63511;49.346;8.798;2023-03-01T03:53:20;30.77;;;15.20;;
61383;SDS011;63511;49.346;8.798;2023-03-01T03:55:47;30.77;;;15.35;;
61383;SDS011;63511;49.346;8.798;2023-03-01T03:58:16;34.45;;;16.67;;
61383;SDS011;63511;49.346;8.798;2023-03-01T04:00:46;33.35;;;16.88;;
61383;SDS011;63511;49.346;8.798;2023-03-01T04:03:14;34.45;;;16.27;;
61383;SDS011;63511;49.346;8.798;2023-03-01T04:05:43;31.70;;;14.52;;
61383;SDS011;63511;49.346;8.798;2023-03-01T04:08:12;42.45;;;17.92;;
61383;SDS011;63511;49.346;8.798;2023-03-01T04:10:40;32.40;;;16.25;;
61383;SDS011;63511;49.346;8.798;2023-03-01T04:13:10;32.75;;;15.77;;
61383;SDS011;63511;49.346;8.798;2023-03-01T04:18:06;34.30;;;15.98;;
61383;SDS011;63511;49.346;8.798;2023-03-01T04:20:33;32.55;;;15.85;;
61383;SDS011;63511;49.346;8.798;2023-03-01T04:23:02;31.55;;;16.30;;
61383;SDS011;63511;49.346;8.798;2023-03-01T04:25:37;30.83;;;15.43;;
61383;SDS011;63511;49.346;8.798;2023-03-01T04:28:04;35.70;;;16.65;;
61383;SDS011;63511;49.346;8.798;2023-03-01T04:30:31;33.50;;;16.83;;
61383;SDS011;63511;49.346;8.798;2023-03-01T04:33:01;31.40;;;15.60;;
61383;SDS011;63511;49.346;8.798;2023-03-01T04:35:28;34.88;;;16.42;;
61383;SDS011;63511;49.346;8.798;2023-03-01T04:37:55;33.85;;;17.13;;
61383;SDS011;63511;49.346;8.798;2023-03-01T04:40:21;38.72;;;16.52;;
61383;SDS011;63511;49.346;8.798;2023-03-01T04:42:49;35.67;;;17.52;;
61383;SDS011;63511;49.346;8.798;2023-03-01T04:45:16;35.83;;;16.83;;
61383;SDS011;63511;49.346;8.798;2023-03-01T04:47:43;37.92;;;18.15;;
61383;SDS011;63511;49.346;8.798;2023-03-01T04:50:12;35.70;;;17.20;;
61383;SDS011;63511;49.346;8.798;2023-03-01T04:52:40;39.17;;;17.75;;
61383;SDS011;63511;49.346;8.798;2023-03-01T04:55:07;42.72;;;17.75;;
61383;SDS011;63511;49.346;8.798;2023-03-01T04:57:34;38.72;;;17.38;;
61383;SDS011;63511;49.346;8.798;2023-03-01T05:00:03;33.50;;;16.75;;
61383;SDS011;63511;49.346;8.798;2023-03-01T05:02:45;37.25;;;18.75;;
61383;SDS011;63511;49.346;8.798;2023-03-01T05:05:13;33.75;;;17.45;;
61383;SDS011;63511;49.346;8.798;2023-03-01T05:07:39;39.83;;;17.38;;
61383;SDS011;63511;49.346;8.798;2023-03-01T05:10:06;36.67;;;16.27;;
61383;SDS011;63511;49.346;8.798;2023-03-01T05:12:34;33.63;;;17.95;;
61383;SDS011;63511;49.346;8.798;2023-03-01T05:15:04;31.50;;;15.80;;
61383;SDS011;63511;49.346;8.798;2023-03-01T05:17:32;38.35;;;19.15;;
61383;SDS011;63511;49.346;8.798;2023-03-01T05:19:58;45.83;;;18.38;;
61383;SDS011;63511;49.346;8.798;2023-03-01T05:22:26;33.45;;;17.05;;
61383;SDS011;63511;49.346;8.798;2023-03-01T05:24:52;33.55;;;18.15;;
61383;SDS011;63511;49.346;8.798;2023-03-01T05:27:20;40.47;;;17.70;;
61383;SDS011;63511;49.346;8.798;2023-03-01T05:29:47;40.25;;;18.25;;
61383;SDS011;63511;49.346;8.798;2023-03-01T05:32:15;36.30;;;18.48;;
61383;SDS011;63511;49.346;8.798;2023-03-01T05:34:42;38.08;;;19.80;;
61383;SDS011;63511;49.346;8.798;2023-03-01T05:37:09;39.45;;;18.05;;
61383;SDS011;63511;49.346;8.798;2023-03-01T05:39:35;33.67;;;16.75;;
61383;SDS011;63511;49.346;8.798;2023-03-01T05:42:02;43.95;;;21.73;;
61383;SDS011;63511;49.346;8.798;2023-03-01T05:44:29;43.17;;;19.92;;
61383;SDS011;63511;49.346;8.798;2023-03-01T05:46:55;37.33;;;18.02;;
61383;SDS011;63511;49.346;8.798;2023-03-01T05:49:24;42.78;;;17.83;;
61383;SDS011;63511;49.346;8.798;2023-03-01T05:51:51;38.72;;;18.05;;
61383;SDS011;63511;49.346;8.798;2023-03-01T05:54:19;37.25;;;18.02;;
61383;SDS011;63511;49.346;8.798;2023-03-01T05:56:46;40.05;;;19.00;;
61383;SDS011;63511;49.346;8.798;2023-03-01T05:59:13;36.30;;;17.73;;
61383;SDS011;63511;49.346;8.798;2023-03-01T06:01:41;46.72;;;19.27;;
61383;SDS011;63511;49.346;8.798;2023-03-01T06:04:08;37.58;;;19.88;;
61383;SDS011;63511;49.346;8.798;2023-03-01T06:06:37;39.88;;;18.48;;
61383;SDS011;63511;49.346;8.798;2023-03-01T06:09:04;36.70;;;17.30;;
61383;SDS011;63511;49.346;8.798;2023-03-01T06:11:33;41.22;;;19.17;;
61383;SDS011;63511;49.346;8.798;2023-03-01T06:13:59;40.05;;;19.73;;
61383;SDS011;63511;49.346;8.798;2023-03-01T06:16:26;39.83;;;18.23;;
61383;SDS011;63511;49.346;8.798;2023-03-01T06:18:53;38.15;;;18.38;;
61383;SDS011;63511;49.346;8.798;2023-03-01T06:21:19;38.30;;;17.88;;
61383;SDS011;63511;49.346;8.798;2023-03-01T06:23:47;41.13;;;19.98;;
61383;SDS011;63511;49.346;8.798;2023-03-01T06:26:14;50.28;;;18.92;;
61383;SDS011;63511;49.346;8.798;2023-03-01T06:28:40;48.70;;;21.88;;
61383;SDS011;63511;49.346;8.798;2023-03-01T06:31:07;40.47;;;18.85;;
61383;SDS011;63511;49.346;8.798;2023-03-01T06:33:33;40.05;;;19.20;;
61383;SDS011;63511;49.346;8.798;2023-03-01T06:36:01;39.80;;;18.83;;
61383;SDS011;63511;49.346;8.798;2023-03-01T06:38:27;37.85;;;18.98;;
61383;SDS011;63511;49.346;8.798;2023-03-01T06:40:55;38.65;;;19.35;;
61383;SDS011;63511;49.346;8.798;2023-03-01T06:43:22;40.47;;;19.33;;
61383;SDS011;63511;49.346;8.798;2023-03-01T06:45:49;39.13;;;19.63;;
61383;SDS011;63511;49.346;8.798;2023-03-01T06:48:16;43.35;;;18.60;;
61383;SDS011;63511;49.346;8.798;2023-03-01T06:50:43;38.63;;;18.85;;
61383;SDS011;63511;49.346;8.798;2023-03-01T06:53:09;40.05;;;18.75;;
61383;SDS011;63511;49.346;8.798;2023-03-01T06:55:36;38.22;;;18.75;;
61383;SDS011;63511;49.346;8.798;2023-03-01T06:58:04;36.60;;;17.80;;
61383;SDS011;63511;49.346;8.798;2023-03-01T07:00:31;41.55;;;17.95;;
61383;SDS011;63511;49.346;8.798;2023-03-01T07:02:58;44.30;;;18.98;;
61383;SDS011;63511;49.346;8.798;2023-03-01T07:05:26;37.42;;;18.55;;
61383;SDS011;63511;49.346;8.798;2023-03-01T07:07:53;35.15;;;19.00;;
61383;SDS011;63511;49.346;8.798;2023-03-01T07:10:20;43.50;;;20.55;;
61383;SDS011;63511;49.346;8.798;2023-03-01T07:12:47;35.65;;;18.30;;
61383;SDS011;63511;49.346;8.798;2023-03-01T07:15:15;40.72;;;18.90;;
61383;SDS011;63511;49.346;8.798;2023-03-01T07:17:41;45.83;;;20.42;;
61383;SDS011;63511;49.346;8.798;2023-03-01T07:20:09;38.95;;;19.17;;
61383;SDS011;63511;49.346;8.798;2023-03-01T07:22:39;45.28;;;19.45;;
61383;SDS011;63511;49.346;8.798;2023-03-01T07:25:06;39.25;;;20.35;;
61383;SDS011;63511;49.346;8.798;2023-03-01T07:27:33;40.03;;;18.95;;
61383;SDS011;63511;49.346;8.798;2023-03-01T07:29:59;42.55;;;19.60;;
61383;SDS011;63511;49.346;8.798;2023-03-01T07:32:27;43.28;;;20.65;;
61383;SDS011;63511;49.346;8.798;2023-03-01T07:34:53;43.58;;;19.25;;
61383;SDS011;63511;49.346;8.798;2023-03-01T07:37:20;38.70;;;19.55;;
61383;SDS011;63511;49.346;8.798;2023-03-01T07:39:47;35.60;;;19.38;;
61383;SDS011;63511;49.346;8.798;2023-03-01T07:42:13;45.13;;;20.98;;
61383;SDS011;63511;49.346;8.798;2023-03-01T07:44:40;36.40;;;17.67;;
61383;SDS011;63511;49.346;8.798;2023-03-01T07:47:06;39.15;;;17.77;;
61383;SDS011;63511;49.346;8.798;2023-03-01T07:49:34;34.10;;;17.38;;
61383;SDS011;63511;49.346;8.798;2023-03-01T07:52:01;35.80;;;18.30;;
61383;SDS011;63511;49.346;8.798;2023-03-01T07:54:27;33.45;;;17.92;;
61383;SDS011;63511;49.346;8.798;2023-03-01T07:56:54;36.40;;;18.83;;
61383;SDS011;63511;49.346;8.798;2023-03-01T07:59:20;35.78;;;16.98;;
61383;SDS011;63511;49.346;8.798;2023-03-01T08:01:48;36.63;;;17.33;;
61383;SDS011;63511;49.346;8.798;2023-03-01T08:04:15;40.03;;;17.63;;
61383;SDS011;63511;49.346;8.798;2023-03-01T08:06:43;38.75;;;18.95;;
61383;SDS011;63511;49.346;8.798;2023-03-01T08:09:09;36.53;;;16.95;;
61383;SDS011;63511;49.346;8.798;2023-03-01T08:11:36;34.15;;;15.75;;
61383;SDS011;63511;49.346;8.798;2023-03-01T08:14:03;33.20;;;17.00;;
61383;SDS011;63511;49.346;8.798;2023-03-01T08:16:29;33.13;;;16.58;;
61383;SDS011;63511;49.346;8.798;2023-03-01T08:18:57;40.80;;;17.83;;
61383;SDS011;63511;49.346;8.798;2023-03-01T08:21:26;36.22;;;16.67;;
61383;SDS011;63511;49.346;8.798;2023-03-01T08:23:54;43.97;;;18.05;;
61383;SDS011;63511;49.346;8.798;2023-03-01T08:26:21;32.45;;;17.08;;
61383;SDS011;63511;49.346;8.798;2023-03-01T08:28:48;32.88;;;18.60;;
61383;SDS011;63511;49.346;8.798;2023-03-01T08:31:16;36.28;;;17.38;;
61383;SDS011;63511;49.346;8.798;2023-03-01T08:33:44;36.17;;;18.08;;
61383;SDS011;63511;49.346;8.798;2023-03-01T08:36:15;37.08;;;19.15;;
61383;SDS011;63511;49.346;8.798;2023-03-01T08:38:42;39.05;;;17.38;;
61383;SDS011;63511;49.346;8.798;2023-03-01T08:41:10;40.63;;;18.33;;
61383;SDS011;63511;49.346;8.798;2023-03-01T08:43:37;31.33;;;15.35;;
61383;SDS011;63511;49.346;8.798;2023-03-01T08:46:03;37.75;;;17.27;;
61383;SDS011;63511;49.346;8.798;2023-03-01T08:48:30;31.83;;;16.80;;
61383;SDS011;63511;49.346;8.798;2023-03-01T08:50:57;36.80;;;18.80;;
61383;SDS011;63511;49.346;8.798;2023-03-01T08:53:32;40.70;;;18.80;;
61383;SDS011;63511;49.346;8.798;2023-03-01T08:55:59;41.33;;;18.15;;
61383;SDS011;63511;49.346;8.798;2023-03-01T08:58:27;35.83;;;17.27;;
61383;SDS011;63511;49.346;8.798;2023-03-01T09:00:54;37.10;;;19.13;;
61383;SDS011;63511;49.346;8.798;2023-03-01T09:03:21;38.60;;;19.52;;
61383;SDS011;63511;49.346;8.798;2023-03-01T09:05:48;32.13;;;18.48;;
61383;SDS011;63511;49.346;8.798;2023-03-01T09:08:15;43.92;;;19.02;;
61383;SDS011;63511;49.346;8.798;2023-03-01T09:10:41;35.42;;;19.58;;
61383;SDS011;63511;49.346;8.798;2023-03-01T09:13:08;35.65;;;18.88;;
61383;SDS011;63511;49.346;8.798;2023-03-01T09:15:37;35.78;;;18.15;;
61383;SDS011;63511;49.346;8.798;2023-03-01T09:18:04;39.60;;;21.02;;
61383;SDS011;63511;49.346;8.798;2023-03-01T09:20:31;32.13;;;17.42;;
61383;SDS011;63511;49.346;8.798;2023-03-01T09:22:58;34.15;;;19.13;;
61383;SDS011;63511;49.346;8.798;2023-03-01T09:25:25;36.78;;;18.63;;
61383;SDS011;63511;49.346;8.798;2023-03-01T09:27:52;38.95;;;19.27;;
61383;SDS011;63511;49.346;8.798;2023-03-01T09:30:18;41.95;;;19.08;;
61383;SDS011;63511;49.346;8.798;2023-03-01T09:32:47;37.30;;;17.85;;
61383;SDS011;63511;49.346;8.798;2023-03-01T09:35:13;35.05;;;16.95;;
61383;SDS011;63511;49.346;8.798;2023-03-01T09:37:40;39.53;;;18.30;;
61383;SDS011;63511;49.346;8.798;2023-03-01T09:40:09;37.40;;;19.02;;
61383;SDS011;63511;49.346;8.798;2023-03-01T09:42:45;43.00;;;19.15;;
61383;SDS011;63511;49.346;8.798;2023-03-01T09:45:17;36.40;;;18.92;;
61383;SDS011;63511;49.346;8.798;2023-03-01T09:47:52;40.47;;;19.58;;
61383;SDS011;63511;49.346;8.798;2023-03-01T09:50:20;38.30;;;18.67;;
61383;SDS011;63511;49.346;8.798;2023-03-01T09:52:47;34.22;;;19.85;;
61383;SDS011;63511;49.346;8.798;2023-03-01T09:55:24;38.20;;;18.70;;
61383;SDS011;63511;49.346;8.798;2023-03-01T09:57:55;32.78;;;18.25;;
61383;SDS011;63511;49.346;8.798;2023-03-01T10:00:33;37.03;;;18.45;;
61383;SDS011;63511;49.346;8.798;2023-03-01T10:03:10;34.63;;;18.55;;
61383;SDS011;63511;49.346;8.798;2023-03-01T10:05:48;38.00;;;20.45;;
61383;SDS011;63511;49.346;8.798;2023-03-01T10:08:26;34.75;;;17.77;;
61383;SDS011;63511;49.346;8.798;2023-03-01T10:11:00;36.55;;;17.88;;
61383;SDS011;63511;49.346;8.798;2023-03-01T10:13:29;32.90;;;17.58;;
61383;SDS011;63511;49.346;8.798;2023-03-01T10:16:01;32.55;;;17.58;;
61383;SDS011;63511;49.346;8.798;2023-03-01T10:21:27;34.60;;;18.35;;
61383;SDS011;63511;49.346;8.798;2023-03-01T10:23:56;33.05;;;17.67;;
61383;SDS011;63511;49.346;8.798;2023-03-01T10:26:38;36.67;;;18.40;;
61383;SDS011;63511;49.346;8.798;2023-03-01T10:29:12;31.25;;;17.77;;
61383;SDS011;63511;49.346;8.798;2023-03-01T10:31:39;36.25;;;18.48;;
61383;SDS011;63511;49.346;8.798;2023-03-01T10:34:10;29.10;;;17.00;;
61383;SDS011;63511;49.346;8.798;2023-03-01T10:36:39;33.85;;;17.33;;
61383;SDS011;63511;49.346;8.798;2023-03-01T10:39:11;34.25;;;18.25;;
61383;SDS011;63511;49.346;8.798;2023-03-01T10:46:59;37.58;;;18.88;;
61383;SDS011;63511;49.346;8.798;2023-03-01T10:49:25;32.13;;;16.77;;
61383;SDS011;63511;49.346;8.798;2023-03-01T10:51:52;32.28;;;17.00;;
61383;SDS011;63511;49.346;8.798;2023-03-01T10:54:20;31.85;;;17.83;;
61383;SDS011;63511;49.346;8.798;2023-03-01T10:56:49;32.55;;;17.40;;
61383;SDS011;63511;49.346;8.798;2023-03-01T10:59:22;27.45;;;16.02;;
61383;SDS011;63511;49.346;8.798;2023-03-01T11:02:02;37.35;;;17.95;;
61383;SDS011;63511;49.346;8.798;2023-03-01T11:07:28;29.38;;;15.80;;
61383;SDS011;63511;49.346;8.798;2023-03-01T11:09:54;33.80;;;16.70;;
61383;SDS011;63511;49.346;8.798;2023-03-01T11:12:20;32.00;;;17.55;;
61383;SDS011;63511;49.346;8.798;2023-03-01T11:14:47;25.50;;;15.27;;
61383;SDS011;63511;49.346;8.798;2023-03-01T11:17:15;32.20;;;16.98;;
61383;SDS011;63511;49.346;8.798;2023-03-01T11:19:59;26.05;;;15.60;;
61383;SDS011;63511;49.346;8.798;2023-03-01T11:22:30;27.60;;;14.55;;
61383;SDS011;63511;49.346;8.798;2023-03-01T11:24:59;28.95;;;15.32;;
61383;SDS011;63511;49.346;8.798;2023-03-01T11:27:28;30.33;;;15.93;;
61383;SDS011;63511;49.346;8.798;2023-03-01T11:29:58;27.40;;;14.90;;
61383;SDS011;63511;49.346;8.798;2023-03-01T11:32:30;28.30;;;16.42;;
61383;SDS011;63511;49.346;8.798;2023-03-01T11:35:02;28.58;;;17.13;;
61383;SDS011;63511;49.346;8.798;2023-03-01T11:37:34;28.98;;;16.23;;
61383;SDS011;63511;49.346;8.798;2023-03-01T11:40:07;29.92;;;17.35;;
61383;SDS011;63511;49.346;8.798;2023-03-01T11:42:51;29.23;;;16.25;;
61383;SDS011;63511;49.346;8.798;2023-03-01T11:45:25;28.88;;;16.20;;
61383;SDS011;63511;49.346;8.798;2023-03-01T11:48:02;27.05;;;16.13;;
61383;SDS011;63511;49.346;8.798;2023-03-01T11:50:40;31.92;;;17.45;;
61383;SDS011;63511;49.346;8.798;2023-03-01T11:53:17;27.05;;;15.85;;
61383;SDS011;63511;49.346;8.798;2023-03-01T11:55:59;30.63;;;14.52;;
61383;SDS011;63511;49.346;8.798;2023-03-01T11:58:39;28.05;;;16.20;;
61383;SDS011;63511;49.346;8.798;2023-03-01T12:03:52;28.95;;;15.02;;
61383;SDS011;63511;49.346;8.798;2023-03-01T12:06:52;29.13;;;15.80;;
61383;SDS011;63511;49.346;8.798;2023-03-01T12:12:18;24.85;;;14.68;;
61383;SDS011;63511;49.346;8.798;2023-03-01T12:15:08;27.40;;;14.65;;
61383;SDS011;63511;49.346;8.798;2023-03-01T12:17:52;26.60;;;14.88;;
61383;SDS011;63511;49.346;8.798;2023-03-01T12:20:30;30.67;;;15.32;;
61383;SDS011;63511;49.346;8.798;2023-03-01T12:23:04;28.52;;;17.30;;
61383;SDS011;63511;49.346;8.798;2023-03-01T12:25:54;33.38;;;16.73;;
61383;SDS011;63511;49.346;8.798;2023-03-01T12:28:35;30.65;;;15.45;;
61383;SDS011;63511;49.346;8.798;2023-03-01T12:31:18;28.17;;;16.42;;
61383;SDS011;63511;49.346;8.798;2023-03-01T12:34:00;28.83;;;16.30;;
61383;SDS011;63511;49.346;8.798;2023-03-01T12:39:41;24.48;;;14.80;;
61383;SDS011;63511;49.346;8.798;2023-03-01T12:42:20;26.98;;;15.43;;
61383;SDS011;63511;49.346;8.798;2023-03-01T12:44:59;23.35;;;14.57;;
61383;SDS011;63511;49.346;8.798;2023-03-01T12:47:49;23.27;;;13.48;;
61383;SDS011;63511;49.346;8.798;2023-03-01T12:50:26;25.25;;;14.57;;
61383;SDS011;63511;49.346;8.798;2023-03-01T12:53:45;23.77;;;13.43;;
61383;SDS011;63511;49.346;8.798;2023-03-01T12:56:00;27.17;;;13.82;;
61383;SDS011;63511;49.346;8.798;2023-03-01T12:58:29;27.40;;;15.25;;
61383;SDS011;63511;49.346;8.798;2023-03-01T13:01:01;27.42;;;14.98;;
61383;SDS011;63511;49.346;8.798;2023-03-01T13:03:45;27.95;;;14.40;;
61383;SDS011;63511;49.346;8.798;2023-03-01T13:06:23;23.02;;;14.30;;
61383;SDS011;63511;49.346;8.798;2023-03-01T13:09:03;19.70;;;13.02;;
61383;SDS011;63511;49.346;8.798;2023-03-01T13:11:40;23.83;;;13.77;;
61383;SDS011;63511;49.346;8.798;2023-03-01T13:17:33;24.60;;;14.20;;
61383;SDS011;63511;49.346;8.798;2023-03-01T13:22:39;24.45;;;13.55;;
61383;SDS011;63511;49.346;8.798;2023-03-01T13:25:14;25.00;;;13.07;;
61383;SDS011;63511;49.346;8.798;2023-03-01T13:27:44;26.48;;;14.90;;
61383;SDS011;63511;49.346;8.798;2023-03-01T13:36:11;23.17;;;12.73;;
61383;SDS011;63511;49.346;8.798;2023-03-01T13:39:02;21.60;;;11.87;;
61383;SDS011;63511;49.346;8.798;2023-03-01T13:44:20;27.70;;;14.68;;
61383;SDS011;63511;49.346;8.798;2023-03-01T13:46:51;23.95;;;14.38;;
61383;SDS011;63511;49.346;8.798;2023-03-01T13:49:19;22.55;;;13.73;;
61383;SDS011;63511;49.346;8.798;2023-03-01T13:51:48;28.77;;;13.32;;
61383;SDS011;63511;49.346;8.798;2023-03-01T13:54:26;22.20;;;13.13;;
61383;SDS011;63511;49.346;8.798;2023-03-01T13:56:56;24.90;;;13.63;;
61383;SDS011;63511;49.346;8.798;2023-03-01T13:59:26;26.20;;;13.15;;
61383;SDS011;63511;49.346;8.798;2023-03-01T14:01:55;35.13;;;12.85;;
61383;SDS011;63511;49.346;8.798;2023-03-01T14:04:24;23.58;;;14.23;;
61383;SDS011;63511;49.346;8.798;2023-03-01T14:06:52;21.60;;;13.23;;
61383;SDS011;63511;49.346;8.798;2023-03-01T14:09:34;25.40;;;14.13;;
61383;SDS011;63511;49.346;8.798;2023-03-01T14:12:10;21.85;;;12.77;;
61383;SDS011;63511;49.346;8.798;2023-03-01T14:14:54;26.80;;;14.82;;
61383;SDS011;63511;49.346;8.798;2023-03-01T14:17:49;26.42;;;13.57;;
61383;SDS011;63511;49.346;8.798;2023-03-01T14:20:22;23.95;;;13.40;;
61383;SDS011;63511;49.346;8.798;2023-03-01T14:22:51;22.65;;;12.43;;
61383;SDS011;63511;49.346;8.798;2023-03-01T14:25:21;33.30;;;14.30;;
61383;SDS011;63511;49.346;8.798;2023-03-01T14:27:57;20.65;;;12.30;;
61383;SDS011;63511;49.346;8.798;2023-03-01T14:30:27;22.02;;;13.57;;
61383;SDS011;63511;49.346;8.798;2023-03-01T14:32:58;22.08;;;13.70;;
61383;SDS011;63511;49.346;8.798;2023-03-01T14:35:27;23.88;;;13.40;;
61383;SDS011;63511;49.346;8.798;2023-03-01T14:37:55;21.73;;;13.82;;
61383;SDS011;63511;49.346;8.798;2023-03-01T14:40:24;30.15;;;14.43;;
61383;SDS011;63511;49.346;8.798;2023-03-01T14:42:52;24.57;;;13.57;;
61383;SDS011;63511;49.346;8.798;2023-03-01T14:45:21;19.67;;;12.45;;
61383;SDS011;63511;49.346;8.798;2023-03-01T14:47:50;23.35;;;13.65;;
61383;SDS011;63511;49.346;8.798;2023-03-01T14:50:21;27.35;;;13.95;;
61383;SDS011;63511;49.346;8.798;2023-03-01T14:52:52;24.20;;;12.48;;
61383;SDS011;63511;49.346;8.798;2023-03-01T14:55:22;22.98;;;13.35;;
61383;SDS011;63511;49.346;8.798;2023-03-01T14:57:53;22.13;;;13.32;;
61383;SDS011;63511;49.346;8.798;2023-03-01T15:00:20;24.27;;;14.00;;
61383;SDS011;63511;49.346;8.798;2023-03-01T15:02:51;26.48;;;13.52;;
61383;SDS011;63511;49.346;8.798;2023-03-01T15:05:22;23.90;;;14.73;;
61383;SDS011;63511;49.346;8.798;2023-03-01T15:07:51;22.42;;;14.18;;
61383;SDS011;63511;49.346;8.798;2023-03-01T15:10:20;26.13;;;14.00;;
61383;SDS011;63511;49.346;8.798;2023-03-01T15:12:48;28.98;;;14.68;;